sensor_id;sensor_type;location;lat;lon;timestamp;pressure;altitude;pressure_sealevel;temperature
15626;BMP180;7912;51.376;6.126;2022-07-29T00:02:12;101313.00;;;23.30
15626;BMP180;7912;51.376;6.126;2022-07-29T00:05:08;101303.00;;;23.30
15626;BMP180;7912;51.376;6.126;2022-07-29T00:07:42;101295.00;;;23.30
15626;BMP180;7912;51.376;6.126;2022-07-29T00:10:09;101293.00;;;23.20
15626;BMP180;7912;51.376;6.126;2022-07-29T00:16:26;101291.00;;;23.20
15626;BMP180;7912;51.376;6.126;2022-07-29T00:19:16;101293.00;;;23.20
15626;BMP180;7912;51.376;6.126;2022-07-29T00:22:21;101278.00;;;23.20
15626;BMP180;7912;51.376;6.126;2022-07-29T00:25:08;101273.00;;;23.10
15626;BMP180;7912;51.376;6.126;2022-07-29T00:27:49;101272.00;;;23.10
15626;BMP180;7912;51.376;6.126;2022-07-29T00:30:25;101263.00;;;23.10
15626;BMP180;7912;51.376;6.126;2022-07-29T00:32:53;101260.00;;;23.10
15626;BMP180;7912;51.376;6.126;2022-07-29T00:35:20;101257.00;;;23.10
15626;BMP180;7912;51.376;6.126;2022-07-29T00:38:35;101262.00;;;23.00
15626;BMP180;7912;51.376;6.126;2022-07-29T00:41:08;101270.00;;;23.10
15626;BMP180;7912;51.376;6.126;2022-07-29T00:43:47;101276.00;;;23.00
15626;BMP180;7912;51.376;6.126;2022-07-29T00:46:20;101277.00;;;23.00
15626;BMP180;7912;51.376;6.126;2022-07-29T00:57:05;101306.00;;;22.80
15626;BMP180;7912;51.376;6.126;2022-07-29T01:03:24;101290.00;;;22.80
15626;BMP180;7912;51.376;6.126;2022-07-29T01:05:58;101287.00;;;22.80
15626;BMP180;7912;51.376;6.126;2022-07-29T01:09:04;101279.00;;;22.80
15626;BMP180;7912;51.376;6.126;2022-07-29T01:12:26;101286.00;;;22.80
15626;BMP180;7912;51.376;6.126;2022-07-29T01:18:56;101305.00;;;22.80
15626;BMP180;7912;51.376;6.126;2022-07-29T01:22:27;101344.00;;;22.80
15626;BMP180;7912;51.376;6.126;2022-07-29T01:34:05;101350.00;;;22.40
15626;BMP180;7912;51.376;6.126;2022-07-29T01:40:29;101355.00;;;22.40
15626;BMP180;7912;51.376;6.126;2022-07-29T01:43:54;101341.00;;;22.20
15626;BMP180;7912;51.376;6.126;2022-07-29T01:47:09;101343.00;;;22.10
15626;BMP180;7912;51.376;6.126;2022-07-29T01:50:16;101324.00;;;21.90
15626;BMP180;7912;51.376;6.126;2022-07-29T01:53:43;101326.00;;;21.70
15626;BMP180;7912;51.376;6.126;2022-07-29T01:56:23;101323.00;;;21.60
15626;BMP180;7912;51.376;6.126;2022-07-29T02:03:17;101316.00;;;21.40
15626;BMP180;7912;51.376;6.126;2022-07-29T02:11:38;101288.00;;;21.00
15626;BMP180;7912;51.376;6.126;2022-07-29T02:14:10;101257.00;;;20.80
15626;BMP180;7912;51.376;6.126;2022-07-29T02:16:43;101256.00;;;20.70
15626;BMP180;7912;51.376;6.126;2022-07-29T02:19:14;101260.00;;;20.70
15626;BMP180;7912;51.376;6.126;2022-07-29T02:21:44;101251.00;;;20.60
15626;BMP180;7912;51.376;6.126;2022-07-29T02:24:15;101250.00;;;20.50
15626;BMP180;7912;51.376;6.126;2022-07-29T02:26:45;101249.00;;;20.50
15626;BMP180;7912;51.376;6.126;2022-07-29T02:29:14;101263.00;;;20.50
15626;BMP180;7912;51.376;6.126;2022-07-29T02:31:45;101270.00;;;20.50
15626;BMP180;7912;51.376;6.126;2022-07-29T02:34:17;101275.00;;;20.40
15626;BMP180;7912;51.376;6.126;2022-07-29T02:36:46;101274.00;;;20.40
15626;BMP180;7912;51.376;6.126;2022-07-29T02:39:17;101275.00;;;20.50
15626;BMP180;7912;51.376;6.126;2022-07-29T02:41:50;101257.00;;;20.40
15626;BMP180;7912;51.376;6.126;2022-07-29T02:44:21;101235.00;;;20.40
15626;BMP180;7912;51.376;6.126;2022-07-29T02:47:03;101236.00;;;20.30
15626;BMP180;7912;51.376;6.126;2022-07-29T02:50:48;101243.00;;;20.20
15626;BMP180;7912;51.376;6.126;2022-07-29T02:53:21;101244.00;;;20.20
15626;BMP180;7912;51.376;6.126;2022-07-29T02:55:57;101248.00;;;20.20
15626;BMP180;7912;51.376;6.126;2022-07-29T02:58:45;101245.00;;;20.20
15626;BMP180;7912;51.376;6.126;2022-07-29T03:01:22;101250.00;;;20.20
15626;BMP180;7912;51.376;6.126;2022-07-29T03:03:53;101250.00;;;20.20
15626;BMP180;7912;51.376;6.126;2022-07-29T03:06:24;101247.00;;;20.20
15626;BMP180;7912;51.376;6.126;2022-07-29T03:09:06;101236.00;;;20.10
15626;BMP180;7912;51.376;6.126;2022-07-29T03:11:41;101231.00;;;20.10
15626;BMP180;7912;51.376;6.126;2022-07-29T03:14:18;101239.00;;;20.10
15626;BMP180;7912;51.376;6.126;2022-07-29T03:16:48;101251.00;;;20.10
15626;BMP180;7912;51.376;6.126;2022-07-29T03:19:18;101263.00;;;20.10
15626;BMP180;7912;51.376;6.126;2022-07-29T03:21:45;101252.00;;;20.20
15626;BMP180;7912;51.376;6.126;2022-07-29T03:24:35;101250.00;;;20.20
15626;BMP180;7912;51.376;6.126;2022-07-29T03:27:04;101254.00;;;20.10
15626;BMP180;7912;51.376;6.126;2022-07-29T03:29:32;101256.00;;;20.10
15626;BMP180;7912;51.376;6.126;2022-07-29T03:32:04;101263.00;;;20.20
15626;BMP180;7912;51.376;6.126;2022-07-29T03:34:36;101265.00;;;20.20
15626;BMP180;7912;51.376;6.126;2022-07-29T03:37:06;101258.00;;;20.20
15626;BMP180;7912;51.376;6.126;2022-07-29T03:39:40;101263.00;;;20.20
15626;BMP180;7912;51.376;6.126;2022-07-29T03:42:12;101266.00;;;20.20
15626;BMP180;7912;51.376;6.126;2022-07-29T03:44:44;101284.00;;;20.20
15626;BMP180;7912;51.376;6.126;2022-07-29T03:47:14;101284.00;;;20.10
15626;BMP180;7912;51.376;6.126;2022-07-29T03:49:50;101277.00;;;20.10
15626;BMP180;7912;51.376;6.126;2022-07-29T03:52:19;101291.00;;;20.10
15626;BMP180;7912;51.376;6.126;2022-07-29T03:54:47;101284.00;;;20.10
15626;BMP180;7912;51.376;6.126;2022-07-29T03:57:16;101269.00;;;20.10
15626;BMP180;7912;51.376;6.126;2022-07-29T03:59:46;101260.00;;;20.10
15626;BMP180;7912;51.376;6.126;2022-07-29T04:02:14;101249.00;;;20.10
15626;BMP180;7912;51.376;6.126;2022-07-29T04:04:48;101256.00;;;20.00
15626;BMP180;7912;51.376;6.126;2022-07-29T04:07:15;101256.00;;;20.00
15626;BMP180;7912;51.376;6.126;2022-07-29T04:09:43;101240.00;;;19.90
15626;BMP180;7912;51.376;6.126;2022-07-29T04:12:10;101246.00;;;19.80
15626;BMP180;7912;51.376;6.126;2022-07-29T04:14:38;101241.00;;;19.80
15626;BMP180;7912;51.376;6.126;2022-07-29T04:17:06;101245.00;;;19.80
15626;BMP180;7912;51.376;6.126;2022-07-29T04:19:33;101245.00;;;19.80
15626;BMP180;7912;51.376;6.126;2022-07-29T04:22:01;101257.00;;;19.80
15626;BMP180;7912;51.376;6.126;2022-07-29T04:24:28;101257.00;;;19.80
15626;BMP180;7912;51.376;6.126;2022-07-29T04:26:56;101260.00;;;19.70
15626;BMP180;7912;51.376;6.126;2022-07-29T04:29:23;101251.00;;;19.70
15626;BMP180;7912;51.376;6.126;2022-07-29T04:31:51;101254.00;;;19.70
15626;BMP180;7912;51.376;6.126;2022-07-29T04:34:18;101266.00;;;19.70
15626;BMP180;7912;51.376;6.126;2022-07-29T04:36:47;101263.00;;;19.60
15626;BMP180;7912;51.376;6.126;2022-07-29T04:39:14;101274.00;;;19.60
15626;BMP180;7912;51.376;6.126;2022-07-29T04:41:48;101262.00;;;19.60
15626;BMP180;7912;51.376;6.126;2022-07-29T04:44:20;101279.00;;;19.70
15626;BMP180;7912;51.376;6.126;2022-07-29T04:46:54;101269.00;;;19.70
15626;BMP180;7912;51.376;6.126;2022-07-29T04:49:22;101276.00;;;19.70
15626;BMP180;7912;51.376;6.126;2022-07-29T04:51:49;101272.00;;;19.70
15626;BMP180;7912;51.376;6.126;2022-07-29T04:54:17;101262.00;;;19.70
15626;BMP180;7912;51.376;6.126;2022-07-29T04:56:45;101258.00;;;19.70
15626;BMP180;7912;51.376;6.126;2022-07-29T04:59:13;101249.00;;;19.70
15626;BMP180;7912;51.376;6.126;2022-07-29T05:01:41;101259.00;;;19.70
15626;BMP180;7912;51.376;6.126;2022-07-29T05:04:08;101268.00;;;19.70
15626;BMP180;7912;51.376;6.126;2022-07-29T05:06:36;101264.00;;;19.70
15626;BMP180;7912;51.376;6.126;2022-07-29T05:09:03;101266.00;;;19.70
15626;BMP180;7912;51.376;6.126;2022-07-29T05:11:30;101244.00;;;19.70
15626;BMP180;7912;51.376;6.126;2022-07-29T05:13:58;101243.00;;;19.70
15626;BMP180;7912;51.376;6.126;2022-07-29T05:16:25;101230.00;;;19.70
15626;BMP180;7912;51.376;6.126;2022-07-29T05:18:54;101224.00;;;19.60
15626;BMP180;7912;51.376;6.126;2022-07-29T05:21:21;101242.00;;;19.60
15626;BMP180;7912;51.376;6.126;2022-07-29T05:23:49;101244.00;;;19.50
15626;BMP180;7912;51.376;6.126;2022-07-29T05:26:16;101244.00;;;19.50
15626;BMP180;7912;51.376;6.126;2022-07-29T05:28:43;101243.00;;;19.50
15626;BMP180;7912;51.376;6.126;2022-07-29T05:31:11;101243.00;;;19.50
15626;BMP180;7912;51.376;6.126;2022-07-29T05:33:39;101244.00;;;19.50
15626;BMP180;7912;51.376;6.126;2022-07-29T05:36:07;101240.00;;;19.50
15626;BMP180;7912;51.376;6.126;2022-07-29T05:38:35;101245.00;;;19.60
15626;BMP180;7912;51.376;6.126;2022-07-29T05:41:04;101237.00;;;19.60
15626;BMP180;7912;51.376;6.126;2022-07-29T05:43:36;101240.00;;;19.60
15626;BMP180;7912;51.376;6.126;2022-07-29T05:46:06;101243.00;;;19.60
15626;BMP180;7912;51.376;6.126;2022-07-29T05:48:33;101231.00;;;19.60
15626;BMP180;7912;51.376;6.126;2022-07-29T05:51:02;101240.00;;;19.60
15626;BMP180;7912;51.376;6.126;2022-07-29T05:53:30;101242.00;;;19.60
15626;BMP180;7912;51.376;6.126;2022-07-29T05:55:57;101240.00;;;19.70
15626;BMP180;7912;51.376;6.126;2022-07-29T05:58:24;101252.00;;;19.60
15626;BMP180;7912;51.376;6.126;2022-07-29T06:00:52;101258.00;;;19.70
15626;BMP180;7912;51.376;6.126;2022-07-29T06:03:20;101251.00;;;19.70
15626;BMP180;7912;51.376;6.126;2022-07-29T06:05:47;101264.00;;;19.80
15626;BMP180;7912;51.376;6.126;2022-07-29T06:08:14;101259.00;;;19.80
15626;BMP180;7912;51.376;6.126;2022-07-29T06:10:42;101267.00;;;19.90
15626;BMP180;7912;51.376;6.126;2022-07-29T06:13:09;101265.00;;;19.90
15626;BMP180;7912;51.376;6.126;2022-07-29T06:15:37;101279.00;;;19.90
15626;BMP180;7912;51.376;6.126;2022-07-29T06:18:04;101272.00;;;19.90
15626;BMP180;7912;51.376;6.126;2022-07-29T06:20:39;101290.00;;;19.90
15626;BMP180;7912;51.376;6.126;2022-07-29T06:23:07;101274.00;;;19.80
15626;BMP180;7912;51.376;6.126;2022-07-29T06:25:35;101271.00;;;19.80
15626;BMP180;7912;51.376;6.126;2022-07-29T06:28:04;101273.00;;;19.80
15626;BMP180;7912;51.376;6.126;2022-07-29T06:30:31;101276.00;;;19.70
15626;BMP180;7912;51.376;6.126;2022-07-29T06:32:58;101276.00;;;19.70
15626;BMP180;7912;51.376;6.126;2022-07-29T06:35:27;101286.00;;;19.60
15626;BMP180;7912;51.376;6.126;2022-07-29T06:38:07;101283.00;;;19.60
15626;BMP180;7912;51.376;6.126;2022-07-29T06:41:13;101297.00;;;19.50
15626;BMP180;7912;51.376;6.126;2022-07-29T06:43:45;101318.00;;;19.50
15626;BMP180;7912;51.376;6.126;2022-07-29T06:46:21;101314.00;;;19.50
15626;BMP180;7912;51.376;6.126;2022-07-29T06:48:51;101309.00;;;19.50
15626;BMP180;7912;51.376;6.126;2022-07-29T06:51:20;101312.00;;;19.60
15626;BMP180;7912;51.376;6.126;2022-07-29T06:53:53;101303.00;;;19.60
15626;BMP180;7912;51.376;6.126;2022-07-29T06:56:30;101325.00;;;19.70
15626;BMP180;7912;51.376;6.126;2022-07-29T06:59:07;101316.00;;;19.80
15626;BMP180;7912;51.376;6.126;2022-07-29T07:01:37;101311.00;;;19.90
15626;BMP180;7912;51.376;6.126;2022-07-29T07:04:24;101318.00;;;19.90
15626;BMP180;7912;51.376;6.126;2022-07-29T07:06:51;101310.00;;;20.00
15626;BMP180;7912;51.376;6.126;2022-07-29T07:09:18;101308.00;;;20.20
15626;BMP180;7912;51.376;6.126;2022-07-29T07:11:46;101312.00;;;20.30
15626;BMP180;7912;51.376;6.126;2022-07-29T07:14:16;101318.00;;;20.50
15626;BMP180;7912;51.376;6.126;2022-07-29T07:16:44;101315.00;;;20.70
15626;BMP180;7912;51.376;6.126;2022-07-29T07:19:11;101318.00;;;20.80
15626;BMP180;7912;51.376;6.126;2022-07-29T07:21:40;101313.00;;;20.90
15626;BMP180;7912;51.376;6.126;2022-07-29T07:24:07;101304.00;;;21.10
15626;BMP180;7912;51.376;6.126;2022-07-29T07:26:34;101318.00;;;21.20
15626;BMP180;7912;51.376;6.126;2022-07-29T07:29:02;101312.00;;;21.30
15626;BMP180;7912;51.376;6.126;2022-07-29T07:31:29;101313.00;;;21.40
15626;BMP180;7912;51.376;6.126;2022-07-29T07:33:57;101309.00;;;21.60
15626;BMP180;7912;51.376;6.126;2022-07-29T07:36:25;101303.00;;;21.70
15626;BMP180;7912;51.376;6.126;2022-07-29T07:38:52;101309.00;;;21.80
15626;BMP180;7912;51.376;6.126;2022-07-29T07:41:20;101314.00;;;21.80
15626;BMP180;7912;51.376;6.126;2022-07-29T07:43:48;101326.00;;;21.80
15626;BMP180;7912;51.376;6.126;2022-07-29T07:46:16;101320.00;;;21.70
15626;BMP180;7912;51.376;6.126;2022-07-29T07:48:44;101321.00;;;21.70
15626;BMP180;7912;51.376;6.126;2022-07-29T07:51:11;101311.00;;;21.80
15626;BMP180;7912;51.376;6.126;2022-07-29T07:53:39;101306.00;;;21.70
15626;BMP180;7912;51.376;6.126;2022-07-29T07:56:06;101323.00;;;21.70
15626;BMP180;7912;51.376;6.126;2022-07-29T07:58:37;101326.00;;;21.70
15626;BMP180;7912;51.376;6.126;2022-07-29T08:01:06;101324.00;;;21.70
15626;BMP180;7912;51.376;6.126;2022-07-29T08:03:33;101335.00;;;21.60
15626;BMP180;7912;51.376;6.126;2022-07-29T08:06:02;101327.00;;;21.60
15626;BMP180;7912;51.376;6.126;2022-07-29T08:08:30;101321.00;;;21.50
15626;BMP180;7912;51.376;6.126;2022-07-29T08:11:00;101333.00;;;21.40
15626;BMP180;7912;51.376;6.126;2022-07-29T08:13:36;101325.00;;;21.40
15626;BMP180;7912;51.376;6.126;2022-07-29T08:16:07;101329.00;;;21.30
15626;BMP180;7912;51.376;6.126;2022-07-29T08:18:44;101315.00;;;21.30
15626;BMP180;7912;51.376;6.126;2022-07-29T08:21:13;101323.00;;;21.20
15626;BMP180;7912;51.376;6.126;2022-07-29T08:23:45;101332.00;;;21.10
15626;BMP180;7912;51.376;6.126;2022-07-29T08:26:24;101337.00;;;21.00
15626;BMP180;7912;51.376;6.126;2022-07-29T08:28:52;101339.00;;;21.00
15626;BMP180;7912;51.376;6.126;2022-07-29T08:31:19;101345.00;;;20.90
15626;BMP180;7912;51.376;6.126;2022-07-29T08:33:47;101357.00;;;21.00
15626;BMP180;7912;51.376;6.126;2022-07-29T08:36:14;101356.00;;;21.00
15626;BMP180;7912;51.376;6.126;2022-07-29T08:38:42;101352.00;;;21.00
15626;BMP180;7912;51.376;6.126;2022-07-29T08:41:10;101358.00;;;21.10
15626;BMP180;7912;51.376;6.126;2022-07-29T08:43:40;101360.00;;;21.10
15626;BMP180;7912;51.376;6.126;2022-07-29T08:46:08;101352.00;;;21.30
15626;BMP180;7912;51.376;6.126;2022-07-29T08:48:36;101362.00;;;21.50
15626;BMP180;7912;51.376;6.126;2022-07-29T08:51:06;101351.00;;;21.70
15626;BMP180;7912;51.376;6.126;2022-07-29T08:53:36;101351.00;;;21.80
15626;BMP180;7912;51.376;6.126;2022-07-29T08:56:05;101365.00;;;22.00
15626;BMP180;7912;51.376;6.126;2022-07-29T08:58:34;101365.00;;;22.20
15626;BMP180;7912;51.376;6.126;2022-07-29T09:01:04;101352.00;;;22.40
15626;BMP180;7912;51.376;6.126;2022-07-29T09:03:38;101370.00;;;22.70
15626;BMP180;7912;51.376;6.126;2022-07-29T09:06:07;101367.00;;;23.40
15626;BMP180;7912;51.376;6.126;2022-07-29T09:08:35;101364.00;;;23.80
15626;BMP180;7912;51.376;6.126;2022-07-29T09:11:02;101362.00;;;24.20
15626;BMP180;7912;51.376;6.126;2022-07-29T09:13:31;101349.00;;;24.70
15626;BMP180;7912;51.376;6.126;2022-07-29T09:15:59;101351.00;;;25.60
15626;BMP180;7912;51.376;6.126;2022-07-29T09:18:42;101342.00;;;26.50
15626;BMP180;7912;51.376;6.126;2022-07-29T09:21:16;101336.00;;;27.40
15626;BMP180;7912;51.376;6.126;2022-07-29T09:24:12;101330.00;;;27.90
15626;BMP180;7912;51.376;6.126;2022-07-29T09:26:45;101340.00;;;28.20
15626;BMP180;7912;51.376;6.126;2022-07-29T09:29:18;101340.00;;;28.70
15626;BMP180;7912;51.376;6.126;2022-07-29T09:31:52;101340.00;;;29.30
15626;BMP180;7912;51.376;6.126;2022-07-29T09:34:28;101346.00;;;29.70
15626;BMP180;7912;51.376;6.126;2022-07-29T09:36:58;101342.00;;;30.00
15626;BMP180;7912;51.376;6.126;2022-07-29T09:39:37;101349.00;;;30.30
15626;BMP180;7912;51.376;6.126;2022-07-29T09:42:06;101338.00;;;30.50
15626;BMP180;7912;51.376;6.126;2022-07-29T09:44:49;101343.00;;;30.70
15626;BMP180;7912;51.376;6.126;2022-07-29T09:47:18;101349.00;;;30.70
15626;BMP180;7912;51.376;6.126;2022-07-29T09:49:59;101347.00;;;30.40
15626;BMP180;7912;51.376;6.126;2022-07-29T09:52:29;101352.00;;;30.40
15626;BMP180;7912;51.376;6.126;2022-07-29T09:55:10;101359.00;;;30.30
15626;BMP180;7912;51.376;6.126;2022-07-29T09:57:44;101358.00;;;30.10
15626;BMP180;7912;51.376;6.126;2022-07-29T10:00:19;101359.00;;;29.80
15626;BMP180;7912;51.376;6.126;2022-07-29T10:02:47;101356.00;;;29.40
15626;BMP180;7912;51.376;6.126;2022-07-29T10:05:24;101355.00;;;29.10
15626;BMP180;7912;51.376;6.126;2022-07-29T10:07:56;101350.00;;;28.90
15626;BMP180;7912;51.376;6.126;2022-07-29T10:10:31;101355.00;;;29.20
15626;BMP180;7912;51.376;6.126;2022-07-29T10:13:03;101355.00;;;29.70
15626;BMP180;7912;51.376;6.126;2022-07-29T10:15:39;101347.00;;;30.30
15626;BMP180;7912;51.376;6.126;2022-07-29T10:18:10;101349.00;;;30.70
15626;BMP180;7912;51.376;6.126;2022-07-29T10:20:49;101345.00;;;31.00
15626;BMP180;7912;51.376;6.126;2022-07-29T10:23:17;101350.00;;;31.30
15626;BMP180;7912;51.376;6.126;2022-07-29T10:25:45;101346.00;;;31.70
15626;BMP180;7912;51.376;6.126;2022-07-29T10:28:13;101349.00;;;32.00
15626;BMP180;7912;51.376;6.126;2022-07-29T10:30:44;101351.00;;;32.20
15626;BMP180;7912;51.376;6.126;2022-07-29T10:44:46;101347.00;;;32.80
15626;BMP180;7912;51.376;6.126;2022-07-29T10:47:34;101344.00;;;32.50
15626;BMP180;7912;51.376;6.126;2022-07-29T10:50:04;101350.00;;;32.20
15626;BMP180;7912;51.376;6.126;2022-07-29T10:55:37;101348.00;;;31.50
15626;BMP180;7912;51.376;6.126;2022-07-29T10:58:17;101351.00;;;31.80
15626;BMP180;7912;51.376;6.126;2022-07-29T11:00:53;101344.00;;;32.20
15626;BMP180;7912;51.376;6.126;2022-07-29T11:03:45;101339.00;;;32.70
15626;BMP180;7912;51.376;6.126;2022-07-29T11:06:16;101343.00;;;32.70
15626;BMP180;7912;51.376;6.126;2022-07-29T11:09:22;101356.00;;;32.70
15626;BMP180;7912;51.376;6.126;2022-07-29T11:12:01;101356.00;;;32.60
15626;BMP180;7912;51.376;6.126;2022-07-29T11:17:24;101343.00;;;32.40
15626;BMP180;7912;51.376;6.126;2022-07-29T11:22:59;101342.00;;;32.50
15626;BMP180;7912;51.376;6.126;2022-07-29T11:25:27;101343.00;;;32.50
15626;BMP180;7912;51.376;6.126;2022-07-29T11:28:20;101346.00;;;32.70
15626;BMP180;7912;51.376;6.126;2022-07-29T11:30:53;101349.00;;;32.80
15626;BMP180;7912;51.376;6.126;2022-07-29T11:33:35;101343.00;;;33.10
15626;BMP180;7912;51.376;6.126;2022-07-29T11:36:27;101339.00;;;33.70
15626;BMP180;7912;51.376;6.126;2022-07-29T11:39:25;101341.00;;;34.10
15626;BMP180;7912;51.376;6.126;2022-07-29T11:47:56;101342.00;;;34.60
15626;BMP180;7912;51.376;6.126;2022-07-29T11:50:36;101333.00;;;34.80
15626;BMP180;7912;51.376;6.126;2022-07-29T11:53:13;101339.00;;;34.70
15626;BMP180;7912;51.376;6.126;2022-07-29T11:55:42;101345.00;;;34.40
15626;BMP180;7912;51.376;6.126;2022-07-29T11:58:22;101351.00;;;33.90
15626;BMP180;7912;51.376;6.126;2022-07-29T12:00:52;101339.00;;;33.50
15626;BMP180;7912;51.376;6.126;2022-07-29T12:03:27;101340.00;;;33.40
15626;BMP180;7912;51.376;6.126;2022-07-29T12:06:11;101345.00;;;33.50
15626;BMP180;7912;51.376;6.126;2022-07-29T12:08:42;101346.00;;;33.60
15626;BMP180;7912;51.376;6.126;2022-07-29T12:11:20;101340.00;;;33.60
15626;BMP180;7912;51.376;6.126;2022-07-29T12:13:52;101329.00;;;33.80
15626;BMP180;7912;51.376;6.126;2022-07-29T12:16:21;101328.00;;;34.20
15626;BMP180;7912;51.376;6.126;2022-07-29T12:18:59;101335.00;;;34.50
15626;BMP180;7912;51.376;6.126;2022-07-29T12:21:43;101332.00;;;34.50
15626;BMP180;7912;51.376;6.126;2022-07-29T12:24:19;101334.00;;;34.40
15626;BMP180;7912;51.376;6.126;2022-07-29T12:26:57;101342.00;;;34.20
15626;BMP180;7912;51.376;6.126;2022-07-29T12:29:28;101334.00;;;33.90
15626;BMP180;7912;51.376;6.126;2022-07-29T12:32:03;101338.00;;;33.50
15626;BMP180;7912;51.376;6.126;2022-07-29T12:34:40;101334.00;;;33.60
15626;BMP180;7912;51.376;6.126;2022-07-29T12:37:09;101336.00;;;33.90
15626;BMP180;7912;51.376;6.126;2022-07-29T12:39:39;101332.00;;;34.30
15626;BMP180;7912;51.376;6.126;2022-07-29T12:42:14;101338.00;;;34.70
15626;BMP180;7912;51.376;6.126;2022-07-29T12:44:49;101344.00;;;34.90
15626;BMP180;7912;51.376;6.126;2022-07-29T12:47:19;101338.00;;;35.20
15626;BMP180;7912;51.376;6.126;2022-07-29T12:49:48;101335.00;;;35.30
15626;BMP180;7912;51.376;6.126;2022-07-29T12:52:32;101320.00;;;35.60
15626;BMP180;7912;51.376;6.126;2022-07-29T12:55:00;101325.00;;;36.00
15626;BMP180;7912;51.376;6.126;2022-07-29T12:57:28;101328.00;;;36.40
15626;BMP180;7912;51.376;6.126;2022-07-29T13:00:00;101327.00;;;36.60
15626;BMP180;7912;51.376;6.126;2022-07-29T13:02:27;101325.00;;;36.70
15626;BMP180;7912;51.376;6.126;2022-07-29T13:05:00;101326.00;;;36.70
15626;BMP180;7912;51.376;6.126;2022-07-29T13:07:30;101329.00;;;36.70
15626;BMP180;7912;51.376;6.126;2022-07-29T13:10:21;101313.00;;;37.00
15626;BMP180;7912;51.376;6.126;2022-07-29T13:13:05;101321.00;;;37.20
15626;BMP180;7912;51.376;6.126;2022-07-29T13:15:34;101315.00;;;37.30
15626;BMP180;7912;51.376;6.126;2022-07-29T13:18:02;101313.00;;;37.60
15626;BMP180;7912;51.376;6.126;2022-07-29T13:20:31;101315.00;;;37.60
15626;BMP180;7912;51.376;6.126;2022-07-29T13:23:00;101320.00;;;37.50
15626;BMP180;7912;51.376;6.126;2022-07-29T13:25:31;101324.00;;;37.60
15626;BMP180;7912;51.376;6.126;2022-07-29T13:27:59;101315.00;;;37.70
15626;BMP180;7912;51.376;6.126;2022-07-29T13:30:27;101317.00;;;37.70
15626;BMP180;7912;51.376;6.126;2022-07-29T13:32:56;101314.00;;;37.60
15626;BMP180;7912;51.376;6.126;2022-07-29T13:35:23;101314.00;;;37.40
15626;BMP180;7912;51.376;6.126;2022-07-29T13:37:51;101319.00;;;37.10
15626;BMP180;7912;51.376;6.126;2022-07-29T13:40:22;101321.00;;;37.10
15626;BMP180;7912;51.376;6.126;2022-07-29T13:42:49;101312.00;;;36.90
15626;BMP180;7912;51.376;6.126;2022-07-29T13:45:17;101307.00;;;36.90
15626;BMP180;7912;51.376;6.126;2022-07-29T13:47:45;101306.00;;;37.00
15626;BMP180;7912;51.376;6.126;2022-07-29T13:50:15;101306.00;;;37.00
15626;BMP180;7912;51.376;6.126;2022-07-29T13:52:42;101300.00;;;37.10
15626;BMP180;7912;51.376;6.126;2022-07-29T13:55:10;101304.00;;;37.00
15626;BMP180;7912;51.376;6.126;2022-07-29T13:57:37;101301.00;;;36.90
15626;BMP180;7912;51.376;6.126;2022-07-29T14:00:05;101308.00;;;36.80
15626;BMP180;7912;51.376;6.126;2022-07-29T14:02:34;101311.00;;;37.00
15626;BMP180;7912;51.376;6.126;2022-07-29T14:05:01;101300.00;;;37.00
15626;BMP180;7912;51.376;6.126;2022-07-29T14:07:34;101313.00;;;37.20
15626;BMP180;7912;51.376;6.126;2022-07-29T14:10:02;101299.00;;;37.30
15626;BMP180;7912;51.376;6.126;2022-07-29T14:12:30;101298.00;;;36.70
15626;BMP180;7912;51.376;6.126;2022-07-29T14:14:57;101302.00;;;36.30
15626;BMP180;7912;51.376;6.126;2022-07-29T14:17:25;101312.00;;;36.30
15626;BMP180;7912;51.376;6.126;2022-07-29T14:19:52;101306.00;;;36.50
15626;BMP180;7912;51.376;6.126;2022-07-29T14:22:59;101304.00;;;36.60
15626;BMP180;7912;51.376;6.126;2022-07-29T14:25:26;101311.00;;;36.80
15626;BMP180;7912;51.376;6.126;2022-07-29T14:27:54;101313.00;;;36.80
15626;BMP180;7912;51.376;6.126;2022-07-29T14:30:24;101314.00;;;36.60
15626;BMP180;7912;51.376;6.126;2022-07-29T14:32:52;101311.00;;;36.50
15626;BMP180;7912;51.376;6.126;2022-07-29T14:35:19;101299.00;;;36.40
15626;BMP180;7912;51.376;6.126;2022-07-29T14:37:47;101306.00;;;36.10
15626;BMP180;7912;51.376;6.126;2022-07-29T14:40:14;101301.00;;;35.90
15626;BMP180;7912;51.376;6.126;2022-07-29T14:42:41;101306.00;;;35.90
15626;BMP180;7912;51.376;6.126;2022-07-29T14:45:10;101302.00;;;36.10
15626;BMP180;7912;51.376;6.126;2022-07-29T14:47:38;101306.00;;;36.40
15626;BMP180;7912;51.376;6.126;2022-07-29T14:50:07;101301.00;;;36.50
15626;BMP180;7912;51.376;6.126;2022-07-29T14:52:35;101299.00;;;36.70
15626;BMP180;7912;51.376;6.126;2022-07-29T14:55:04;101288.00;;;36.60
15626;BMP180;7912;51.376;6.126;2022-07-29T14:57:46;101291.00;;;36.20
15626;BMP180;7912;51.376;6.126;2022-07-29T15:00:15;101293.00;;;36.00
15626;BMP180;7912;51.376;6.126;2022-07-29T15:02:42;101307.00;;;35.80
15626;BMP180;7912;51.376;6.126;2022-07-29T15:05:28;101297.00;;;35.90
15626;BMP180;7912;51.376;6.126;2022-07-29T15:07:56;101304.00;;;36.20
15626;BMP180;7912;51.376;6.126;2022-07-29T15:10:23;101298.00;;;36.40
15626;BMP180;7912;51.376;6.126;2022-07-29T15:12:54;101295.00;;;36.70
15626;BMP180;7912;51.376;6.126;2022-07-29T15:15:21;101295.00;;;36.70
15626;BMP180;7912;51.376;6.126;2022-07-29T15:17:49;101294.00;;;36.90
15626;BMP180;7912;51.376;6.126;2022-07-29T15:20:18;101300.00;;;37.20
15626;BMP180;7912;51.376;6.126;2022-07-29T15:22:45;101301.00;;;37.20
15626;BMP180;7912;51.376;6.126;2022-07-29T15:25:13;101296.00;;;37.00
15626;BMP180;7912;51.376;6.126;2022-07-29T15:27:40;101300.00;;;36.90
15626;BMP180;7912;51.376;6.126;2022-07-29T15:30:14;101296.00;;;36.90
15626;BMP180;7912;51.376;6.126;2022-07-29T15:33:02;101300.00;;;37.30
15626;BMP180;7912;51.376;6.126;2022-07-29T15:35:30;101289.00;;;37.50
15626;BMP180;7912;51.376;6.126;2022-07-29T15:38:03;101291.00;;;37.70
15626;BMP180;7912;51.376;6.126;2022-07-29T15:40:49;101302.00;;;37.80
15626;BMP180;7912;51.376;6.126;2022-07-29T15:43:16;101300.00;;;38.10
15626;BMP180;7912;51.376;6.126;2022-07-29T15:45:44;101302.00;;;38.50
15626;BMP180;7912;51.376;6.126;2022-07-29T15:48:31;101282.00;;;38.60
15626;BMP180;7912;51.376;6.126;2022-07-29T15:50:59;101280.00;;;38.60
15626;BMP180;7912;51.376;6.126;2022-07-29T15:53:27;101283.00;;;38.70